sensor_id;sensor_type;location;lat;lon;timestamp;P1;durP1;ratioP1;P2;durP2;ratioP2
18574;SDS011;9417;16.484;102.872;2022-12-10T00:00:05;30.77;;;22.75;;
18574;SDS011;9417;16.484;102.872;2022-12-10T00:02:13;32.28;;;22.05;;
18574;SDS011;9417;16.484;102.872;2022-12-10T00:04:20;31.65;;;24.50;;
18574;SDS011;9417;16.484;102.872;2022-12-10T00:06:28;31.63;;;21.75;;
18574;SDS011;9417;16.484;102.872;2022-12-10T00:08:36;31.55;;;21.15;;
18574;SDS011;9417;16.484;102.872;2022-12-10T00:10:45;29.60;;;20.27;;
18574;SDS011;9417;16.484;102.872;2022-12-10T00:12:52;25.65;;;18.88;;
18574;SDS011;9417;16.484;102.872;2022-12-10T00:15:00;24.48;;;16.73;;
18574;SDS011;9417;16.484;102.872;2022-12-10T00:17:07;26.20;;;16.52;;
18574;SDS011;9417;16.484;102.872;2022-12-10T00:19:14;21.52;;;15.35;;
18574;SDS011;9417;16.484;102.872;2022-12-10T00:21:22;23.65;;;15.27;;
18574;SDS011;9417;16.484;102.872;2022-12-10T00:23:31;23.05;;;15.15;;
18574;SDS011;9417;16.484;102.872;2022-12-10T00:25:38;22.08;;;14.05;;
18574;SDS011;9417;16.484;102.872;2022-12-10T00:27:47;21.75;;;14.73;;
18574;SDS011;9417;16.484;102.872;2022-12-10T00:29:54;25.25;;;15.77;;
18574;SDS011;9417;16.484;102.872;2022-12-10T00:32:01;23.67;;;16.00;;
18574;SDS011;9417;16.484;102.872;2022-12-10T00:34:09;21.35;;;14.60;;
18574;SDS011;9417;16.484;102.872;2022-12-10T00:36:18;20.10;;;13.60;;
18574;SDS011;9417;16.484;102.872;2022-12-10T00:38:27;19.40;;;12.18;;
18574;SDS011;9417;16.484;102.872;2022-12-10T00:40:34;18.17;;;12.10;;
18574;SDS011;9417;16.484;102.872;2022-12-10T00:42:41;15.38;;;11.52;;
18574;SDS011;9417;16.484;102.872;2022-12-10T00:44:51;17.70;;;11.85;;
18574;SDS011;9417;16.484;102.872;2022-12-10T00:46:58;16.98;;;11.23;;
18574;SDS011;9417;16.484;102.872;2022-12-10T00:49:05;17.40;;;11.57;;
18574;SDS011;9417;16.484;102.872;2022-12-10T00:51:13;18.00;;;11.52;;
18574;SDS011;9417;16.484;102.872;2022-12-10T00:53:21;16.48;;;11.63;;
18574;SDS011;9417;16.484;102.872;2022-12-10T00:55:29;18.98;;;12.00;;
18574;SDS011;9417;16.484;102.872;2022-12-10T00:57:36;15.80;;;11.40;;
18574;SDS011;9417;16.484;102.872;2022-12-10T00:59:43;17.30;;;11.63;;
18574;SDS011;9417;16.484;102.872;2022-12-10T01:01:52;15.18;;;11.30;;
18574;SDS011;9417;16.484;102.872;2022-12-10T01:04:00;14.40;;;10.77;;
18574;SDS011;9417;16.484;102.872;2022-12-10T01:06:10;17.83;;;12.40;;
18574;SDS011;9417;16.484;102.872;2022-12-10T01:08:19;16.92;;;11.48;;
18574;SDS011;9417;16.484;102.872;2022-12-10T01:10:26;17.05;;;11.88;;
18574;SDS011;9417;16.484;102.872;2022-12-10T01:12:34;15.80;;;11.43;;
18574;SDS011;9417;16.484;102.872;2022-12-10T01:14:41;16.45;;;11.70;;
18574;SDS011;9417;16.484;102.872;2022-12-10T01:16:55;15.07;;;10.80;;
18574;SDS011;9417;16.484;102.872;2022-12-10T01:19:03;15.13;;;10.90;;
18574;SDS011;9417;16.484;102.872;2022-12-10T01:21:12;15.82;;;11.52;;
18574;SDS011;9417;16.484;102.872;2022-12-10T01:23:20;15.25;;;11.23;;
18574;SDS011;9417;16.484;102.872;2022-12-10T01:25:27;18.15;;;12.23;;
18574;SDS011;9417;16.484;102.872;2022-12-10T01:27:34;17.48;;;11.68;;
18574;SDS011;9417;16.484;102.872;2022-12-10T01:29:41;19.25;;;11.98;;
18574;SDS011;9417;16.484;102.872;2022-12-10T01:31:50;18.42;;;13.00;;
18574;SDS011;9417;16.484;102.872;2022-12-10T01:34:00;16.83;;;11.82;;
18574;SDS011;9417;16.484;102.872;2022-12-10T01:36:09;17.95;;;11.73;;
18574;SDS011;9417;16.484;102.872;2022-12-10T01:38:18;16.27;;;11.13;;
18574;SDS011;9417;16.484;102.872;2022-12-10T01:40:25;15.30;;;11.50;;
18574;SDS011;9417;16.484;102.872;2022-12-10T01:42:34;18.15;;;11.27;;
18574;SDS011;9417;16.484;102.872;2022-12-10T01:45:01;15.93;;;10.98;;
18574;SDS011;9417;16.484;102.872;2022-12-10T01:47:14;16.20;;;10.85;;
18574;SDS011;9417;16.484;102.872;2022-12-10T01:49:24;19.42;;;12.18;;
18574;SDS011;9417;16.484;102.872;2022-12-10T01:51:33;15.48;;;11.82;;
18574;SDS011;9417;16.484;102.872;2022-12-10T01:53:41;15.05;;;11.05;;
18574;SDS011;9417;16.484;102.872;2022-12-10T01:55:49;16.95;;;10.90;;
18574;SDS011;9417;16.484;102.872;2022-12-10T01:57:57;17.05;;;10.80;;
18574;SDS011;9417;16.484;102.872;2022-12-10T02:00:05;14.98;;;10.02;;
18574;SDS011;9417;16.484;102.872;2022-12-10T02:02:17;14.00;;;10.93;;
18574;SDS011;9417;16.484;102.872;2022-12-10T02:04:36;14.35;;;10.60;;
18574;SDS011;9417;16.484;102.872;2022-12-10T02:06:54;14.98;;;10.27;;
18574;SDS011;9417;16.484;102.872;2022-12-10T02:09:10;18.35;;;11.77;;
18574;SDS011;9417;16.484;102.872;2022-12-10T02:11:27;19.52;;;13.68;;
18574;SDS011;9417;16.484;102.872;2022-12-10T02:13:43;16.70;;;11.10;;
18574;SDS011;9417;16.484;102.872;2022-12-10T02:15:58;14.02;;;9.90;;
18574;SDS011;9417;16.484;102.872;2022-12-10T02:18:13;13.80;;;9.60;;
18574;SDS011;9417;16.484;102.872;2022-12-10T02:20:28;13.02;;;9.35;;
18574;SDS011;9417;16.484;102.872;2022-12-10T02:22:44;16.13;;;10.32;;
18574;SDS011;9417;16.484;102.872;2022-12-10T02:24:55;14.65;;;10.15;;
18574;SDS011;9417;16.484;102.872;2022-12-10T02:27:10;13.90;;;9.73;;
18574;SDS011;9417;16.484;102.872;2022-12-10T02:29:23;14.90;;;10.02;;
18574;SDS011;9417;16.484;102.872;2022-12-10T02:31:31;14.82;;;10.48;;
18574;SDS011;9417;16.484;102.872;2022-12-10T02:33:41;20.67;;;9.95;;
18574;SDS011;9417;16.484;102.872;2022-12-10T02:35:50;13.50;;;8.52;;
18574;SDS011;9417;16.484;102.872;2022-12-10T02:37:59;14.13;;;10.02;;
18574;SDS011;9417;16.484;102.872;2022-12-10T02:40:15;13.98;;;9.77;;
18574;SDS011;9417;16.484;102.872;2022-12-10T02:42:27;14.07;;;9.50;;
18574;SDS011;9417;16.484;102.872;2022-12-10T02:44:37;13.25;;;8.32;;
18574;SDS011;9417;16.484;102.872;2022-12-10T02:46:48;14.57;;;10.48;;
18574;SDS011;9417;16.484;102.872;2022-12-10T02:49:02;13.02;;;9.60;;
18574;SDS011;9417;16.484;102.872;2022-12-10T02:51:11;14.70;;;10.20;;
18574;SDS011;9417;16.484;102.872;2022-12-10T02:53:19;15.60;;;11.13;;
18574;SDS011;9417;16.484;102.872;2022-12-10T02:55:26;16.10;;;10.88;;
18574;SDS011;9417;16.484;102.872;2022-12-10T02:57:36;13.93;;;9.27;;
18574;SDS011;9417;16.484;102.872;2022-12-10T03:02:28;15.98;;;10.30;;
18574;SDS011;9417;16.484;102.872;2022-12-10T03:04:42;13.13;;;9.75;;
18574;SDS011;9417;16.484;102.872;2022-12-10T03:06:58;12.38;;;8.60;;
18574;SDS011;9417;16.484;102.872;2022-12-10T03:09:09;12.23;;;9.00;;
18574;SDS011;9417;16.484;102.872;2022-12-10T03:11:21;43.53;;;31.02;;
18574;SDS011;9417;16.484;102.872;2022-12-10T03:13:29;19.40;;;14.60;;
18574;SDS011;9417;16.484;102.872;2022-12-10T03:15:43;14.80;;;11.48;;
18574;SDS011;9417;16.484;102.872;2022-12-10T03:17:53;14.50;;;10.52;;
18574;SDS011;9417;16.484;102.872;2022-12-10T03:20:02;14.68;;;9.90;;
18574;SDS011;9417;16.484;102.872;2022-12-10T03:22:12;14.43;;;9.23;;
18574;SDS011;9417;16.484;102.872;2022-12-10T03:24:21;11.85;;;8.63;;
18574;SDS011;9417;16.484;102.872;2022-12-10T03:26:31;13.00;;;9.38;;
18574;SDS011;9417;16.484;102.872;2022-12-10T03:28:39;17.10;;;12.30;;
18574;SDS011;9417;16.484;102.872;2022-12-10T03:30:52;17.52;;;12.98;;
18574;SDS011;9417;16.484;102.872;2022-12-10T03:33:02;13.93;;;9.93;;
18574;SDS011;9417;16.484;102.872;2022-12-10T03:35:10;13.65;;;9.95;;
18574;SDS011;9417;16.484;102.872;2022-12-10T03:37:18;13.05;;;9.23;;
18574;SDS011;9417;16.484;102.872;2022-12-10T03:39:26;13.32;;;9.00;;
18574;SDS011;9417;16.484;102.872;2022-12-10T03:41:34;13.80;;;8.30;;
18574;SDS011;9417;16.484;102.872;2022-12-10T03:43:51;12.43;;;9.60;;
18574;SDS011;9417;16.484;102.872;2022-12-10T03:46:01;12.88;;;8.90;;
18574;SDS011;9417;16.484;102.872;2022-12-10T03:48:09;12.00;;;8.40;;
18574;SDS011;9417;16.484;102.872;2022-12-10T03:50:16;11.57;;;9.13;;
18574;SDS011;9417;16.484;102.872;2022-12-10T03:52:24;11.77;;;8.68;;
18574;SDS011;9417;16.484;102.872;2022-12-10T03:54:31;10.07;;;7.68;;
18574;SDS011;9417;16.484;102.872;2022-12-10T03:56:38;9.95;;;7.43;;
18574;SDS011;9417;16.484;102.872;2022-12-10T03:58:45;10.75;;;7.53;;
18574;SDS011;9417;16.484;102.872;2022-12-10T04:00:52;9.50;;;7.35;;
18574;SDS011;9417;16.484;102.872;2022-12-10T04:03:01;9.45;;;6.85;;
18574;SDS011;9417;16.484;102.872;2022-12-10T04:05:08;9.70;;;7.25;;
18574;SDS011;9417;16.484;102.872;2022-12-10T04:07:15;9.82;;;7.65;;
18574;SDS011;9417;16.484;102.872;2022-12-10T04:09:22;9.23;;;6.72;;
18574;SDS011;9417;16.484;102.872;2022-12-10T04:11:30;14.48;;;10.85;;
18574;SDS011;9417;16.484;102.872;2022-12-10T04:13:37;13.50;;;8.85;;
18574;SDS011;9417;16.484;102.872;2022-12-10T04:16:01;11.85;;;7.13;;
18574;SDS011;9417;16.484;102.872;2022-12-10T04:18:27;10.20;;;7.55;;
18574;SDS011;9417;16.484;102.872;2022-12-10T04:20:34;11.20;;;7.50;;
18574;SDS011;9417;16.484;102.872;2022-12-10T04:22:57;10.07;;;7.20;;
18574;SDS011;9417;16.484;102.872;2022-12-10T04:25:20;11.18;;;7.05;;
18574;SDS011;9417;16.484;102.872;2022-12-10T04:27:44;9.48;;;6.53;;
18574;SDS011;9417;16.484;102.872;2022-12-10T04:29:51;9.63;;;7.45;;
18574;SDS011;9417;16.484;102.872;2022-12-10T04:31:59;8.85;;;7.10;;
18574;SDS011;9417;16.484;102.872;2022-12-10T04:34:08;10.57;;;7.00;;
18574;SDS011;9417;16.484;102.872;2022-12-10T04:36:16;9.05;;;6.63;;
18574;SDS011;9417;16.484;102.872;2022-12-10T04:38:23;9.20;;;6.95;;
18574;SDS011;9417;16.484;102.872;2022-12-10T04:40:31;9.82;;;7.28;;
18574;SDS011;9417;16.484;102.872;2022-12-10T04:42:38;10.18;;;7.25;;
18574;SDS011;9417;16.484;102.872;2022-12-10T04:44:45;9.13;;;6.60;;
18574;SDS011;9417;16.484;102.872;2022-12-10T04:46:52;9.48;;;6.20;;
18574;SDS011;9417;16.484;102.872;2022-12-10T04:48:59;9.18;;;6.97;;
18574;SDS011;9417;16.484;102.872;2022-12-10T04:51:09;8.80;;;6.57;;
18574;SDS011;9417;16.484;102.872;2022-12-10T04:53:16;9.48;;;6.20;;
18574;SDS011;9417;16.484;102.872;2022-12-10T04:55:23;8.70;;;6.38;;
18574;SDS011;9417;16.484;102.872;2022-12-10T04:57:30;9.70;;;6.78;;
18574;SDS011;9417;16.484;102.872;2022-12-10T04:59:37;9.05;;;6.18;;
18574;SDS011;9417;16.484;102.872;2022-12-10T05:01:45;8.60;;;6.40;;
18574;SDS011;9417;16.484;102.872;2022-12-10T05:03:52;10.30;;;5.80;;
18574;SDS011;9417;16.484;102.872;2022-12-10T05:06:00;8.30;;;5.60;;
18574;SDS011;9417;16.484;102.872;2022-12-10T05:08:10;7.10;;;5.68;;
18574;SDS011;9417;16.484;102.872;2022-12-10T05:10:17;7.60;;;6.05;;
18574;SDS011;9417;16.484;102.872;2022-12-10T05:12:24;7.05;;;5.68;;
18574;SDS011;9417;16.484;102.872;2022-12-10T05:14:32;12.65;;;6.32;;
18574;SDS011;9417;16.484;102.872;2022-12-10T05:16:40;11.05;;;6.05;;
18574;SDS011;9417;16.484;102.872;2022-12-10T05:18:47;9.77;;;6.20;;
18574;SDS011;9417;16.484;102.872;2022-12-10T05:20:54;8.13;;;5.82;;
18574;SDS011;9417;16.484;102.872;2022-12-10T05:23:04;8.55;;;6.35;;
18574;SDS011;9417;16.484;102.872;2022-12-10T05:25:30;9.55;;;5.82;;
18574;SDS011;9417;16.484;102.872;2022-12-10T05:27:56;10.40;;;6.38;;
18574;SDS011;9417;16.484;102.872;2022-12-10T05:30:04;10.35;;;7.13;;
18574;SDS011;9417;16.484;102.872;2022-12-10T05:32:13;8.52;;;6.30;;
18574;SDS011;9417;16.484;102.872;2022-12-10T05:34:20;8.45;;;6.95;;
18574;SDS011;9417;16.484;102.872;2022-12-10T05:36:29;7.95;;;6.57;;
18574;SDS011;9417;16.484;102.872;2022-12-10T05:38:37;8.02;;;6.72;;
18574;SDS011;9417;16.484;102.872;2022-12-10T05:40:46;8.52;;;6.55;;
18574;SDS011;9417;16.484;102.872;2022-12-10T05:42:59;9.98;;;7.22;;
18574;SDS011;9417;16.484;102.872;2022-12-10T05:45:07;8.55;;;6.60;;
18574;SDS011;9417;16.484;102.872;2022-12-10T05:47:14;8.75;;;7.07;;
18574;SDS011;9417;16.484;102.872;2022-12-10T05:49:21;10.02;;;6.40;;
18574;SDS011;9417;16.484;102.872;2022-12-10T05:51:29;8.48;;;6.18;;
18574;SDS011;9417;16.484;102.872;2022-12-10T05:53:38;10.77;;;6.97;;
18574;SDS011;9417;16.484;102.872;2022-12-10T05:55:48;9.57;;;6.68;;
18574;SDS011;9417;16.484;102.872;2022-12-10T05:57:55;7.82;;;6.20;;
18574;SDS011;9417;16.484;102.872;2022-12-10T06:00:02;7.85;;;5.70;;
18574;SDS011;9417;16.484;102.872;2022-12-10T06:02:13;6.70;;;5.53;;
18574;SDS011;9417;16.484;102.872;2022-12-10T06:04:20;8.45;;;6.22;;
18574;SDS011;9417;16.484;102.872;2022-12-10T06:06:28;10.98;;;5.90;;
18574;SDS011;9417;16.484;102.872;2022-12-10T06:08:36;7.50;;;5.75;;
18574;SDS011;9417;16.484;102.872;2022-12-10T06:10:44;7.88;;;6.18;;
18574;SDS011;9417;16.484;102.872;2022-12-10T06:12:53;7.35;;;6.32;;
18574;SDS011;9417;16.484;102.872;2022-12-10T06:15:00;7.00;;;5.80;;
18574;SDS011;9417;16.484;102.872;2022-12-10T06:17:07;8.25;;;5.70;;
18574;SDS011;9417;16.484;102.872;2022-12-10T06:19:14;7.35;;;5.63;;
18574;SDS011;9417;16.484;102.872;2022-12-10T06:21:21;8.90;;;5.68;;
18574;SDS011;9417;16.484;102.872;2022-12-10T06:23:29;9.65;;;6.32;;
18574;SDS011;9417;16.484;102.872;2022-12-10T06:25:37;7.45;;;4.90;;
18574;SDS011;9417;16.484;102.872;2022-12-10T06:27:45;7.30;;;5.70;;
18574;SDS011;9417;16.484;102.872;2022-12-10T06:29:57;5.88;;;4.65;;
18574;SDS011;9417;16.484;102.872;2022-12-10T06:32:04;7.38;;;5.70;;
18574;SDS011;9417;16.484;102.872;2022-12-10T06:34:11;8.50;;;5.40;;
18574;SDS011;9417;16.484;102.872;2022-12-10T06:36:19;7.93;;;5.70;;
18574;SDS011;9417;16.484;102.872;2022-12-10T06:38:26;6.57;;;5.53;;
18574;SDS011;9417;16.484;102.872;2022-12-10T06:40:33;6.50;;;5.22;;
18574;SDS011;9417;16.484;102.872;2022-12-10T06:42:44;11.20;;;5.85;;
18574;SDS011;9417;16.484;102.872;2022-12-10T06:44:52;8.23;;;5.75;;
18574;SDS011;9417;16.484;102.872;2022-12-10T06:47:01;7.20;;;5.20;;
18574;SDS011;9417;16.484;102.872;2022-12-10T06:49:08;7.65;;;5.53;;
18574;SDS011;9417;16.484;102.872;2022-12-10T06:51:15;6.13;;;5.35;;
18574;SDS011;9417;16.484;102.872;2022-12-10T06:53:23;6.25;;;5.13;;
18574;SDS011;9417;16.484;102.872;2022-12-10T06:55:31;9.45;;;6.00;;
18574;SDS011;9417;16.484;102.872;2022-12-10T06:57:38;7.72;;;6.18;;
18574;SDS011;9417;16.484;102.872;2022-12-10T06:59:45;7.93;;;5.50;;
18574;SDS011;9417;16.484;102.872;2022-12-10T07:01:53;7.70;;;5.30;;
18574;SDS011;9417;16.484;102.872;2022-12-10T07:04:01;7.30;;;5.78;;
18574;SDS011;9417;16.484;102.872;2022-12-10T07:06:09;8.00;;;5.63;;
18574;SDS011;9417;16.484;102.872;2022-12-10T07:08:17;7.88;;;5.60;;
18574;SDS011;9417;16.484;102.872;2022-12-10T07:10:24;8.27;;;5.65;;
18574;SDS011;9417;16.484;102.872;2022-12-10T07:12:31;7.68;;;5.40;;
18574;SDS011;9417;16.484;102.872;2022-12-10T07:14:38;6.65;;;4.93;;
18574;SDS011;9417;16.484;102.872;2022-12-10T07:16:46;9.85;;;6.00;;
18574;SDS011;9417;16.484;102.872;2022-12-10T07:18:53;8.75;;;6.50;;
18574;SDS011;9417;16.484;102.872;2022-12-10T07:21:03;11.70;;;5.85;;
18574;SDS011;9417;16.484;102.872;2022-12-10T07:23:20;8.55;;;5.65;;
18574;SDS011;9417;16.484;102.872;2022-12-10T07:25:27;6.72;;;5.10;;
18574;SDS011;9417;16.484;102.872;2022-12-10T07:27:35;7.45;;;5.53;;
18574;SDS011;9417;16.484;102.872;2022-12-10T07:29:43;7.22;;;5.75;;
18574;SDS011;9417;16.484;102.872;2022-12-10T07:31:50;7.15;;;5.70;;
18574;SDS011;9417;16.484;102.872;2022-12-10T07:33:58;11.23;;;8.07;;
18574;SDS011;9417;16.484;102.872;2022-12-10T07:36:07;9.40;;;6.13;;
18574;SDS011;9417;16.484;102.872;2022-12-10T07:38:16;8.57;;;5.88;;
18574;SDS011;9417;16.484;102.872;2022-12-10T07:40:24;7.68;;;5.72;;
18574;SDS011;9417;16.484;102.872;2022-12-10T07:42:31;9.40;;;5.10;;
18574;SDS011;9417;16.484;102.872;2022-12-10T07:44:39;10.50;;;4.88;;
18574;SDS011;9417;16.484;102.872;2022-12-10T07:46:50;6.55;;;4.43;;
18574;SDS011;9417;16.484;102.872;2022-12-10T07:48:59;6.20;;;4.65;;
18574;SDS011;9417;16.484;102.872;2022-12-10T07:51:08;6.63;;;4.50;;
18574;SDS011;9417;16.484;102.872;2022-12-10T07:53:16;5.63;;;4.50;;
18574;SDS011;9417;16.484;102.872;2022-12-10T07:55:23;6.78;;;4.93;;
18574;SDS011;9417;16.484;102.872;2022-12-10T07:57:31;7.82;;;5.32;;
18574;SDS011;9417;16.484;102.872;2022-12-10T07:59:38;7.38;;;5.75;;
18574;SDS011;9417;16.484;102.872;2022-12-10T08:01:45;8.00;;;5.47;;
18574;SDS011;9417;16.484;102.872;2022-12-10T08:03:53;7.72;;;5.00;;
18574;SDS011;9417;16.484;102.872;2022-12-10T08:06:02;8.13;;;4.70;;
18574;SDS011;9417;16.484;102.872;2022-12-10T08:08:12;7.45;;;5.47;;
18574;SDS011;9417;16.484;102.872;2022-12-10T08:10:19;8.73;;;5.35;;
18574;SDS011;9417;16.484;102.872;2022-12-10T08:12:26;7.57;;;5.60;;
18574;SDS011;9417;16.484;102.872;2022-12-10T08:14:33;8.73;;;5.80;;
18574;SDS011;9417;16.484;102.872;2022-12-10T08:16:40;8.27;;;5.85;;
18574;SDS011;9417;16.484;102.872;2022-12-10T08:18:48;6.70;;;5.30;;
18574;SDS011;9417;16.484;102.872;2022-12-10T08:20:55;6.93;;;5.18;;
18574;SDS011;9417;16.484;102.872;2022-12-10T08:23:02;7.00;;;5.57;;
18574;SDS011;9417;16.484;102.872;2022-12-10T08:25:11;7.70;;;5.22;;
18574;SDS011;9417;16.484;102.872;2022-12-10T08:27:19;7.68;;;5.45;;
18574;SDS011;9417;16.484;102.872;2022-12-10T08:29:26;8.48;;;5.15;;
18574;SDS011;9417;16.484;102.872;2022-12-10T08:31:33;6.63;;;4.95;;
18574;SDS011;9417;16.484;102.872;2022-12-10T08:33:41;7.43;;;5.32;;
18574;SDS011;9417;16.484;102.872;2022-12-10T08:35:48;6.68;;;5.03;;
18574;SDS011;9417;16.484;102.872;2022-12-10T08:37:55;5.88;;;4.72;;
18574;SDS011;9417;16.484;102.872;2022-12-10T08:40:02;7.22;;;5.03;;
18574;SDS011;9417;16.484;102.872;2022-12-10T08:42:12;6.35;;;5.10;;
18574;SDS011;9417;16.484;102.872;2022-12-10T08:44:20;6.07;;;4.60;;
18574;SDS011;9417;16.484;102.872;2022-12-10T08:46:27;6.40;;;4.90;;
18574;SDS011;9417;16.484;102.872;2022-12-10T08:48:35;7.18;;;5.63;;
18574;SDS011;9417;16.484;102.872;2022-12-10T08:50:43;7.75;;;6.07;;
18574;SDS011;9417;16.484;102.872;2022-12-10T08:52:50;8.48;;;5.68;;
18574;SDS011;9417;16.484;102.872;2022-12-10T08:54:57;7.97;;;6.03;;
18574;SDS011;9417;16.484;102.872;2022-12-10T08:57:05;6.70;;;5.13;;
18574;SDS011;9417;16.484;102.872;2022-12-10T08:59:14;6.70;;;5.20;;
18574;SDS011;9417;16.484;102.872;2022-12-10T09:01:21;7.65;;;5.50;;
18574;SDS011;9417;16.484;102.872;2022-12-10T09:03:29;11.82;;;7.35;;
18574;SDS011;9417;16.484;102.872;2022-12-10T09:05:36;9.70;;;6.05;;
18574;SDS011;9417;16.484;102.872;2022-12-10T09:07:44;8.65;;;5.68;;
18574;SDS011;9417;16.484;102.872;2022-12-10T09:09:51;6.95;;;5.00;;
18574;SDS011;9417;16.484;102.872;2022-12-10T09:11:59;7.82;;;5.40;;
18574;SDS011;9417;16.484;102.872;2022-12-10T09:14:06;8.95;;;5.57;;
18574;SDS011;9417;16.484;102.872;2022-12-10T09:16:15;6.63;;;5.22;;
18574;SDS011;9417;16.484;102.872;2022-12-10T09:18:22;9.50;;;4.97;;
18574;SDS011;9417;16.484;102.872;2022-12-10T09:20:30;6.35;;;4.72;;
18574;SDS011;9417;16.484;102.872;2022-12-10T09:22:37;8.57;;;5.50;;
18574;SDS011;9417;16.484;102.872;2022-12-10T09:24:44;9.05;;;4.95;;
18574;SDS011;9417;16.484;102.872;2022-12-10T09:26:52;7.95;;;5.25;;
18574;SDS011;9417;16.484;102.872;2022-12-10T09:28:59;7.97;;;5.28;;
18574;SDS011;9417;16.484;102.872;2022-12-10T09:31:07;9.00;;;5.00;;
18574;SDS011;9417;16.484;102.872;2022-12-10T09:33:20;7.38;;;5.50;;
18574;SDS011;9417;16.484;102.872;2022-12-10T09:35:27;8.40;;;5.63;;
18574;SDS011;9417;16.484;102.872;2022-12-10T09:37:34;7.63;;;5.20;;
18574;SDS011;9417;16.484;102.872;2022-12-10T09:39:41;8.77;;;5.93;;
18574;SDS011;9417;16.484;102.872;2022-12-10T09:41:58;7.93;;;5.85;;
18574;SDS011;9417;16.484;102.872;2022-12-10T09:44:25;7.80;;;5.85;;
18574;SDS011;9417;16.484;102.872;2022-12-10T09:46:45;7.25;;;5.53;;
18574;SDS011;9417;16.484;102.872;2022-12-10T09:49:02;8.27;;;6.00;;
18574;SDS011;9417;16.484;102.872;2022-12-10T09:51:19;6.93;;;5.53;;
18574;SDS011;9417;16.484;102.872;2022-12-10T09:53:29;8.65;;;5.55;;
18574;SDS011;9417;16.484;102.872;2022-12-10T09:55:38;7.18;;;5.45;;
18574;SDS011;9417;16.484;102.872;2022-12-10T09:57:50;7.43;;;5.43;;
18574;SDS011;9417;16.484;102.872;2022-12-10T09:59:59;8.88;;;5.68;;
18574;SDS011;9417;16.484;102.872;2022-12-10T10:02:18;9.10;;;5.95;;
18574;SDS011;9417;16.484;102.872;2022-12-10T10:04:30;8.80;;;5.75;;
18574;SDS011;9417;16.484;102.872;2022-12-10T10:06:37;8.98;;;5.82;;
18574;SDS011;9417;16.484;102.872;2022-12-10T10:08:45;8.93;;;5.90;;
18574;SDS011;9417;16.484;102.872;2022-12-10T10:10:55;9.27;;;6.57;;
18574;SDS011;9417;16.484;102.872;2022-12-10T10:13:11;9.27;;;6.20;;
18574;SDS011;9417;16.484;102.872;2022-12-10T10:15:25;8.43;;;6.47;;
18574;SDS011;9417;16.484;102.872;2022-12-10T10:17:36;10.30;;;6.68;;
18574;SDS011;9417;16.484;102.872;2022-12-10T10:19:50;14.80;;;7.15;;
18574;SDS011;9417;16.484;102.872;2022-12-10T10:21:57;10.05;;;6.43;;
18574;SDS011;9417;16.484;102.872;2022-12-10T10:24:05;8.27;;;6.05;;
18574;SDS011;9417;16.484;102.872;2022-12-10T10:26:17;11.20;;;6.75;;
18574;SDS011;9417;16.484;102.872;2022-12-10T10:28:29;10.15;;;6.55;;
18574;SDS011;9417;16.484;102.872;2022-12-10T10:30:36;11.88;;;6.82;;
18574;SDS011;9417;16.484;102.872;2022-12-10T10:32:46;9.52;;;6.50;;
18574;SDS011;9417;16.484;102.872;2022-12-10T10:34:57;12.35;;;7.47;;
18574;SDS011;9417;16.484;102.872;2022-12-10T10:37:11;9.43;;;5.95;;
18574;SDS011;9417;16.484;102.872;2022-12-10T10:39:33;10.07;;;6.82;;
18574;SDS011;9417;16.484;102.872;2022-12-10T10:41:41;14.30;;;6.50;;
18574;SDS011;9417;16.484;102.872;2022-12-10T10:43:48;12.15;;;7.78;;
18574;SDS011;9417;16.484;102.872;2022-12-10T10:46:06;11.75;;;7.45;;
18574;SDS011;9417;16.484;102.872;2022-12-10T10:48:19;12.30;;;7.15;;
18574;SDS011;9417;16.484;102.872;2022-12-10T10:50:30;16.73;;;8.90;;
18574;SDS011;9417;16.484;102.872;2022-12-10T10:52:43;17.90;;;8.93;;
18574;SDS011;9417;16.484;102.872;2022-12-10T10:54:51;18.75;;;10.02;;
18574;SDS011;9417;16.484;102.872;2022-12-10T10:56:57;15.80;;;9.95;;
18574;SDS011;9417;16.484;102.872;2022-12-10T10:59:07;14.70;;;10.25;;
18574;SDS011;9417;16.484;102.872;2022-12-10T11:01:44;18.55;;;10.88;;
18574;SDS011;9417;16.484;102.872;2022-12-10T11:03:54;17.48;;;10.73;;
18574;SDS011;9417;16.484;102.872;2022-12-10T11:06:06;18.23;;;10.48;;
18574;SDS011;9417;16.484;102.872;2022-12-10T11:08:15;14.20;;;10.05;;
18574;SDS011;9417;16.484;102.872;2022-12-10T11:10:24;17.17;;;9.93;;
18574;SDS011;9417;16.484;102.872;2022-12-10T11:12:36;17.02;;;9.07;;
18574;SDS011;9417;16.484;102.872;2022-12-10T11:14:44;17.17;;;9.90;;
18574;SDS011;9417;16.484;102.872;2022-12-10T11:16:55;14.15;;;8.75;;
18574;SDS011;9417;16.484;102.872;2022-12-10T11:19:18;11.68;;;8.57;;
18574;SDS011;9417;16.484;102.872;2022-12-10T11:21:32;11.35;;;8.77;;
18574;SDS011;9417;16.484;102.872;2022-12-10T11:23:40;14.15;;;8.65;;
18574;SDS011;9417;16.484;102.872;2022-12-10T11:25:51;13.88;;;9.40;;
18574;SDS011;9417;16.484;102.872;2022-12-10T11:28:05;14.25;;;9.35;;
18574;SDS011;9417;16.484;102.872;2022-12-10T11:30:22;13.23;;;9.43;;
18574;SDS011;9417;16.484;102.872;2022-12-10T11:32:36;14.80;;;9.80;;
18574;SDS011;9417;16.484;102.872;2022-12-10T11:34:56;15.25;;;9.85;;
18574;SDS011;9417;16.484;102.872;2022-12-10T11:37:16;13.18;;;9.90;;
18574;SDS011;9417;16.484;102.872;2022-12-10T11:39:44;16.70;;;10.95;;
18574;SDS011;9417;16.484;102.872;2022-12-10T11:42:08;15.73;;;10.57;;
18574;SDS011;9417;16.484;102.872;2022-12-10T11:44:24;17.38;;;11.40;;
18574;SDS011;9417;16.484;102.872;2022-12-10T11:46:44;18.80;;;10.70;;
18574;SDS011;9417;16.484;102.872;2022-12-10T11:49:18;15.02;;;10.88;;
18574;SDS011;9417;16.484;102.872;2022-12-10T11:51:33;14.95;;;10.88;;
18574;SDS011;9417;16.484;102.872;2022-12-10T11:53:52;22.23;;;11.43;;
18574;SDS011;9417;16.484;102.872;2022-12-10T11:56:13;16.85;;;12.45;;
18574;SDS011;9417;16.484;102.872;2022-12-10T11:58:32;22.20;;;12.55;;
18574;SDS011;9417;16.484;102.872;2022-12-10T12:00:56;15.98;;;11.73;;
18574;SDS011;9417;16.484;102.872;2022-12-10T12:05:43;15.23;;;11.02;;
18574;SDS011;9417;16.484;102.872;2022-12-10T12:08:07;20.10;;;11.63;;
18574;SDS011;9417;16.484;102.872;2022-12-10T12:10:34;20.08;;;13.15;;
18574;SDS011;9417;16.484;102.872;2022-12-10T12:12:58;27.60;;;16.08;;
18574;SDS011;9417;16.484;102.872;2022-12-10T12:15:13;29.58;;;18.38;;
18574;SDS011;9417;16.484;102.872;2022-12-10T12:17:26;30.38;;;18.38;;
18574;SDS011;9417;16.484;102.872;2022-12-10T12:19:37;28.45;;;17.58;;
18574;SDS011;9417;16.484;102.872;2022-12-10T12:21:48;29.15;;;17.27;;
18574;SDS011;9417;16.484;102.872;2022-12-10T12:23:58;27.55;;;16.65;;
18574;SDS011;9417;16.484;102.872;2022-12-10T12:26:12;27.65;;;16.98;;
18574;SDS011;9417;16.484;102.872;2022-12-10T12:28:25;28.50;;;17.80;;
18574;SDS011;9417;16.484;102.872;2022-12-10T12:30:37;26.92;;;17.35;;
18574;SDS011;9417;16.484;102.872;2022-12-10T12:32:50;27.73;;;16.77;;
18574;SDS011;9417;16.484;102.872;2022-12-10T12:35:02;24.20;;;16.23;;
18574;SDS011;9417;16.484;102.872;2022-12-10T12:37:16;23.13;;;15.57;;
18574;SDS011;9417;16.484;102.872;2022-12-10T12:39:27;22.85;;;14.98;;
18574;SDS011;9417;16.484;102.872;2022-12-10T12:41:43;23.73;;;14.93;;
18574;SDS011;9417;16.484;102.872;2022-12-10T12:44:09;19.67;;;14.20;;
18574;SDS011;9417;16.484;102.872;2022-12-10T12:46:26;19.25;;;13.55;;
18574;SDS011;9417;16.484;102.872;2022-12-10T12:48:41;21.02;;;13.48;;